메인 페이지
METAR-TAF:

METAR-TAF

공항 :

Richard Lloyd Jones Jr. Airport

털사, 오클라호마, 미국

위도: 36-02-33N, 경도: 095-59-22W, 고도: 194m

현재 날씨관측

예보는 14분 전, 22:53시(UTC)에 발표되었습니다.
북북서5kt
온도 19°C
습도 73%
기압 1015 hPa
시정: 16.1km
고도 1800ft 상공 구름 보통
고도 2500ft 상공 구름 많음
고도 8000ft 상공 구름 많음

METAR: KRVS 232253Z 34005KT 10SM SCT018 BKN025 BKN080 19/14 A2996 RMK AO2 SLP150 T01890139

시각: 18:07 (23:07 UTC)

예보

예보는 1 시간 56분 전, 21:11시(UTC)에 발표되었습니다.
예보 대상 시간: 23일 21시부터 24일 18시까지 (UTC)
8kt
시정: 10km
고도 2000ft 상공 구름 많음
고도 2500ft 상공 구름 많음
시계 내 소나기
24일 0100시부터 (UTC)
4kt
시정: 10km
고도 1500ft 상공 흐림
24일 0700시부터 (UTC)
4kt
시정: 10km
고도 1000ft 상공 구름 많음
24일 1400시부터 (UTC)
5kt
시정: 10km
고도 1500ft 상공 구름 많음

TAF: KRVS 232111Z 2321/2418 35008KT P6SM VCSH BKN020 BKN025 FM240100 01004KT P6SM OVC015 FM240700 35004KT P6SM BKN010 FM241400 36005KT P6SM BKN015

4,000개 이상의 공항 관측 자료 및 예보 (METAR 및 TAF 보고).

지도상에서 검색 가능한 기상관측소가 노란 점과 빨간 점으로 표시되어 있습니다.

기상관측소 명을 보려면 표시 위로 마우스를 이동하세요.

날씨 관측과 예보를 보려면 클릭하세요.

지도 변경 : 확대하려면 엑스 표시가 있는 녹색 버튼, 축소하려면 빼기 표시가 있는 녹색 버튼, 다음 페이지의 지도를 보려면 녹색 화살표를 클릭하세요.


METAR-TAF: